Windsor Castle, Pennsylvania
Current Conditions -  °F | °C
As of 5:54 PM on Friday 31 Oct 2014 (Local Time) from KRDG Reporting Station
Overcast Overcast  
Wind Chill: 51°   Ceiling: 6000
Heat Index: 51°   Visibility: 10mi
Dew Point: 34°   Wind: 6mph
Humidity: 52%   Direction: 110°ESE
Pressure: 29.88"   Gusts: NA
Location:  40.5494°N, 75.999°W
Report Text: KRDG 312154Z 11005KT 10SM OVC060 11/01 A2988 RMK AO2 SLP123 T01060011
Loading
Personal Weather Stations






























Interactive Weather Map
Tropical Storm Tracking
New forecast layout! Learn more

10-Day Weather Forecast

Advertisements
Track Severe Weather on mobile